Main page
METAR-TAF:

METAR-TAF

Airports :

Bamako, Mali

Bamako–Modibo Keïta International Airport

latitude: 12-32N, longitude: 007-57W, elevation: 380 m

Current weather observation

The report was made 16 minutes ago, at 16:00 UTC
Wind 7 kt from the East/Northeast
Temperature 42°C
Humidity 10%
Pressure 1009 hPa
Visibility 10 km or more
no clouds below 1500 m and no cumulonimbus

METAR: GABS 251600Z 07007KT CAVOK 42/04 Q1009 NOSIG

Time: 16:16 (16:16 UTC)

Forecast

The report was made 4 hours and 56 minutes ago, at 11:20 UTC
Forecast valid from 25 at 12 UTC to 26 at 18 UTC
Wind 10 kt from the East/Northeast
Visibility: 8000 m
Few clouds at a height of 3300 ft
Probability 30% :
Temporary
from 25 at 15 UTC to 25 at 22 UTC
Scattered clouds at a height of 3000 ft
Few clouds at a height of 4000 ft, Cumulonimbus.
thunderstorm
Becoming
from 25 at 22 UTC to 26 at 00 UTC
Wind 8 kt from the South/Southwest

TAF: GABS 251120Z 2512/2618 06010KT 8000 FEW033 PROB30 TEMPO 2515/2522 TS SCT030 FEW040CB BECMG 2522/2600 20008KT

Weather observations and forecasts of more than 4000 airports (METAR and TAF reports).

The available stations are represented by yellow and red dots on the map.

Hover mouse over dot to see the name of the station.

Then click to see weather observations and forecasts.

To change the map : click on the green buttons with a black cross to zoom in, on the green button with a dash to zoom out, or on the green arrows for adjacent maps.


METAR-TAF: